sensor_id;sensor_type;location;lat;lon;timestamp;pressure;altitude;pressure_sealevel;temperature;humidity
48964;BME280;34776;48.180;16.420;2023-04-01T00:01:18;98401.75;;;11.91;54.36
48964;BME280;34776;48.180;16.420;2023-04-01T00:03:44;98402.72;;;11.90;54.66
48964;BME280;34776;48.180;16.420;2023-04-01T00:06:13;98397.50;;;11.88;54.35
48964;BME280;34776;48.180;16.420;2023-04-01T00:08:38;98410.81;;;11.88;54.44
48964;BME280;34776;48.180;16.420;2023-04-01T00:11:04;98406.44;;;11.87;54.42
48964;BME280;34776;48.180;16.420;2023-04-01T00:13:29;98409.09;;;11.87;54.11
48964;BME280;34776;48.180;16.420;2023-04-01T00:15:55;98415.19;;;11.89;54.28
48964;BME280;34776;48.180;16.420;2023-04-01T00:18:20;98403.78;;;11.87;54.29
48964;BME280;34776;48.180;16.420;2023-04-01T00:20:47;98415.50;;;11.85;54.37
48964;BME280;34776;48.180;16.420;2023-04-01T00:23:14;98404.00;;;11.84;54.51
48964;BME280;34776;48.180;16.420;2023-04-01T00:25:40;98421.69;;;11.85;54.63
48964;BME280;34776;48.180;16.420;2023-04-01T00:28:05;98420.59;;;11.88;54.39
48964;BME280;34776;48.180;16.420;2023-04-01T00:30:31;98416.34;;;11.85;54.49
48964;BME280;34776;48.180;16.420;2023-04-01T00:32:56;98422.63;;;11.84;54.26
48964;BME280;34776;48.180;16.420;2023-04-01T00:35:22;98412.97;;;11.83;54.26
48964;BME280;34776;48.180;16.420;2023-04-01T00:37:47;98411.25;;;11.82;54.39
48964;BME280;34776;48.180;16.420;2023-04-01T00:40:28;98404.72;;;11.75;54.79
48964;BME280;34776;48.180;16.420;2023-04-01T00:42:55;98411.25;;;11.71;54.77
48964;BME280;34776;48.180;16.420;2023-04-01T00:45:35;98408.84;;;11.68;55.06
48964;BME280;34776;48.180;16.420;2023-04-01T00:48:09;98403.53;;;11.68;54.76
48964;BME280;34776;48.180;16.420;2023-04-01T00:50:36;98410.91;;;11.64;54.87
48964;BME280;34776;48.180;16.420;2023-04-01T00:53:02;98413.69;;;11.63;54.99
48964;BME280;34776;48.180;16.420;2023-04-01T00:55:30;98411.00;;;11.63;54.90
48964;BME280;34776;48.180;16.420;2023-04-01T00:57:58;98414.78;;;11.60;55.06
48964;BME280;34776;48.180;16.420;2023-04-01T01:00:25;98404.03;;;11.62;54.94
48964;BME280;34776;48.180;16.420;2023-04-01T01:02:51;98407.41;;;11.64;55.07
48964;BME280;34776;48.180;16.420;2023-04-01T01:05:17;98408.84;;;11.68;55.08
48964;BME280;34776;48.180;16.420;2023-04-01T01:10:24;98410.44;;;11.70;54.81
48964;BME280;34776;48.180;16.420;2023-04-01T01:15:46;98426.75;;;11.66;54.77
48964;BME280;34776;48.180;16.420;2023-04-01T01:18:57;98425.16;;;11.63;54.86
48964;BME280;34776;48.180;16.420;2023-04-01T01:23:56;98418.28;;;11.61;54.99
48964;BME280;34776;48.180;16.420;2023-04-01T01:37:29;98414.28;;;11.55;54.77
48964;BME280;34776;48.180;16.420;2023-04-01T01:39:59;98417.28;;;11.50;54.99
48964;BME280;34776;48.180;16.420;2023-04-01T01:42:27;98412.94;;;11.49;54.98
48964;BME280;34776;48.180;16.420;2023-04-01T01:44:56;98405.19;;;11.46;54.93
48964;BME280;34776;48.180;16.420;2023-04-01T01:47:23;98410.50;;;11.46;55.08
48964;BME280;34776;48.180;16.420;2023-04-01T01:49:51;98403.63;;;11.44;55.02
48964;BME280;34776;48.180;16.420;2023-04-01T01:52:18;98410.13;;;11.40;55.22
48964;BME280;34776;48.180;16.420;2023-04-01T01:54:50;98411.22;;;11.37;55.43
48964;BME280;34776;48.180;16.420;2023-04-01T01:57:17;98403.38;;;11.35;55.42
48964;BME280;34776;48.180;16.420;2023-04-01T01:59:44;98408.09;;;11.32;55.40
48964;BME280;34776;48.180;16.420;2023-04-01T02:02:13;98403.00;;;11.29;55.73
48964;BME280;34776;48.180;16.420;2023-04-01T02:04:40;98406.63;;;11.28;55.68
48964;BME280;34776;48.180;16.420;2023-04-01T02:07:13;98411.22;;;11.26;55.93
48964;BME280;34776;48.180;16.420;2023-04-01T02:09:41;98412.16;;;11.25;55.83
48964;BME280;34776;48.180;16.420;2023-04-01T02:12:13;98400.91;;;11.21;56.19
48964;BME280;34776;48.180;16.420;2023-04-01T02:14:47;98398.63;;;11.16;56.63
48964;BME280;34776;48.180;16.420;2023-04-01T02:17:18;98404.19;;;11.13;56.47
48964;BME280;34776;48.180;16.420;2023-04-01T02:19:51;98401.88;;;11.09;57.02
48964;BME280;34776;48.180;16.420;2023-04-01T02:22:22;98399.31;;;11.07;56.96
48964;BME280;34776;48.180;16.420;2023-04-01T02:24:50;98404.84;;;11.04;57.09
48964;BME280;34776;48.180;16.420;2023-04-01T02:27:17;98396.16;;;11.02;57.05
48964;BME280;34776;48.180;16.420;2023-04-01T02:29:43;98394.47;;;11.01;57.18
48964;BME280;34776;48.180;16.420;2023-04-01T02:32:09;98397.25;;;11.00;57.40
48964;BME280;34776;48.180;16.420;2023-04-01T02:34:35;98399.06;;;10.99;57.50
48964;BME280;34776;48.180;16.420;2023-04-01T02:37:02;98388.44;;;10.99;57.48
48964;BME280;34776;48.180;16.420;2023-04-01T02:39:27;98405.09;;;11.01;57.09
48964;BME280;34776;48.180;16.420;2023-04-01T02:41:53;98404.03;;;11.04;57.36
48964;BME280;34776;48.180;16.420;2023-04-01T02:44:18;98406.31;;;11.08;57.21
48964;BME280;34776;48.180;16.420;2023-04-01T02:46:43;98398.88;;;11.13;57.22
48964;BME280;34776;48.180;16.420;2023-04-01T02:49:10;98395.38;;;11.13;57.24
48964;BME280;34776;48.180;16.420;2023-04-01T02:51:36;98401.53;;;11.13;56.84
48964;BME280;34776;48.180;16.420;2023-04-01T02:54:01;98406.31;;;11.08;57.11
48964;BME280;34776;48.180;16.420;2023-04-01T02:56:27;98417.94;;;11.07;57.02
48964;BME280;34776;48.180;16.420;2023-04-01T02:58:53;98422.28;;;11.08;57.22
48964;BME280;34776;48.180;16.420;2023-04-01T03:01:19;98404.41;;;11.10;57.14
48964;BME280;34776;48.180;16.420;2023-04-01T03:03:44;98406.09;;;11.11;56.95
48964;BME280;34776;48.180;16.420;2023-04-01T03:06:13;98417.81;;;11.09;57.24
48964;BME280;34776;48.180;16.420;2023-04-01T03:08:38;98401.72;;;10.99;57.96
48964;BME280;34776;48.180;16.420;2023-04-01T03:11:04;98408.84;;;10.99;58.37
48964;BME280;34776;48.180;16.420;2023-04-01T03:13:30;98413.91;;;11.02;58.34
48964;BME280;34776;48.180;16.420;2023-04-01T03:15:55;98399.53;;;11.04;58.34
48964;BME280;34776;48.180;16.420;2023-04-01T03:18:21;98409.34;;;11.04;58.33
48964;BME280;34776;48.180;16.420;2023-04-01T03:20:46;98416.97;;;11.08;58.43
48964;BME280;34776;48.180;16.420;2023-04-01T03:23:12;98410.19;;;11.04;58.23
48964;BME280;34776;48.180;16.420;2023-04-01T03:25:38;98415.75;;;11.01;58.03
48964;BME280;34776;48.180;16.420;2023-04-01T03:28:04;98415.84;;;11.00;57.96
48964;BME280;34776;48.180;16.420;2023-04-01T03:30:29;98423.19;;;10.96;58.07
48964;BME280;34776;48.180;16.420;2023-04-01T03:32:56;98417.38;;;10.91;58.22
48964;BME280;34776;48.180;16.420;2023-04-01T03:35:22;98410.25;;;10.91;58.18
48964;BME280;34776;48.180;16.420;2023-04-01T03:37:47;98425.13;;;10.94;58.35
48964;BME280;34776;48.180;16.420;2023-04-01T03:40:13;98419.59;;;10.97;58.25
48964;BME280;34776;48.180;16.420;2023-04-01T03:42:38;98421.28;;;10.98;58.28
48964;BME280;34776;48.180;16.420;2023-04-01T03:45:04;98417.03;;;10.95;58.25
48964;BME280;34776;48.180;16.420;2023-04-01T03:47:30;98411.13;;;10.92;58.20
48964;BME280;34776;48.180;16.420;2023-04-01T03:49:55;98411.34;;;10.89;58.44
48964;BME280;34776;48.180;16.420;2023-04-01T03:52:21;98410.59;;;10.87;58.53
48964;BME280;34776;48.180;16.420;2023-04-01T03:54:47;98406.28;;;10.86;58.48
48964;BME280;34776;48.180;16.420;2023-04-01T03:57:12;98406.28;;;10.86;58.46
48964;BME280;34776;48.180;16.420;2023-04-01T03:59:37;98410.84;;;10.84;58.41
48964;BME280;34776;48.180;16.420;2023-04-01T04:02:03;98405.41;;;10.85;58.54
48964;BME280;34776;48.180;16.420;2023-04-01T04:04:28;98409.16;;;10.83;58.51
48964;BME280;34776;48.180;16.420;2023-04-01T04:06:55;98405.03;;;10.79;58.61
48964;BME280;34776;48.180;16.420;2023-04-01T04:09:21;98412.50;;;10.73;58.63
48964;BME280;34776;48.180;16.420;2023-04-01T04:11:46;98402.81;;;10.72;58.53
48964;BME280;34776;48.180;16.420;2023-04-01T04:14:12;98406.44;;;10.71;58.74
48964;BME280;34776;48.180;16.420;2023-04-01T04:16:37;98402.81;;;10.72;58.70
48964;BME280;34776;48.180;16.420;2023-04-01T04:19:03;98420.81;;;10.69;58.75
48964;BME280;34776;48.180;16.420;2023-04-01T04:21:29;98407.00;;;10.64;58.71
48964;BME280;34776;48.180;16.420;2023-04-01T04:23:54;98404.59;;;10.61;58.64
48964;BME280;34776;48.180;16.420;2023-04-01T04:26:20;98400.34;;;10.58;58.67
48964;BME280;34776;48.180;16.420;2023-04-01T04:28:45;98406.63;;;10.57;58.63
48964;BME280;34776;48.180;16.420;2023-04-01T04:31:11;98399.50;;;10.57;58.58
48964;BME280;34776;48.180;16.420;2023-04-01T04:33:37;98409.38;;;10.55;58.79
48964;BME280;34776;48.180;16.420;2023-04-01T04:36:03;98398.66;;;10.57;58.58
48964;BME280;34776;48.180;16.420;2023-04-01T04:38:29;98395.75;;;10.60;58.68
48964;BME280;34776;48.180;16.420;2023-04-01T04:40:55;98398.19;;;10.63;58.31
48964;BME280;34776;48.180;16.420;2023-04-01T04:43:21;98395.53;;;10.63;58.32
48964;BME280;34776;48.180;16.420;2023-04-01T04:45:46;98395.66;;;10.62;58.40
48964;BME280;34776;48.180;16.420;2023-04-01T04:48:14;98391.31;;;10.61;58.38
48964;BME280;34776;48.180;16.420;2023-04-01T04:50:43;98408.94;;;10.62;58.17
48964;BME280;34776;48.180;16.420;2023-04-01T04:53:13;98411.59;;;10.62;58.37
48964;BME280;34776;48.180;16.420;2023-04-01T04:55:44;98411.69;;;10.60;58.38
48964;BME280;34776;48.180;16.420;2023-04-01T04:58:09;98408.09;;;10.61;58.33
48964;BME280;34776;48.180;16.420;2023-04-01T05:00:35;98403.63;;;10.62;58.22
48964;BME280;34776;48.180;16.420;2023-04-01T05:03:00;98420.41;;;10.62;58.04
48964;BME280;34776;48.180;16.420;2023-04-01T05:05:25;98418.72;;;10.61;58.30
48964;BME280;34776;48.180;16.420;2023-04-01T05:07:51;98415.09;;;10.62;58.33
48964;BME280;34776;48.180;16.420;2023-04-01T05:10:16;98407.13;;;10.62;58.35
48964;BME280;34776;48.180;16.420;2023-04-01T05:12:41;98415.09;;;10.62;58.32
48964;BME280;34776;48.180;16.420;2023-04-01T05:15:07;98409.78;;;10.62;58.46
48964;BME280;34776;48.180;16.420;2023-04-01T05:17:33;98401.81;;;10.62;58.32
48964;BME280;34776;48.180;16.420;2023-04-01T05:19:58;98407.00;;;10.64;58.41
48964;BME280;34776;48.180;16.420;2023-04-01T05:22:24;98411.13;;;10.68;58.36
48964;BME280;34776;48.180;16.420;2023-04-01T05:24:49;98395.09;;;10.69;58.36
48964;BME280;34776;48.180;16.420;2023-04-01T05:27:15;98410.78;;;10.72;58.24
48964;BME280;34776;48.180;16.420;2023-04-01T05:29:40;98412.25;;;10.76;58.22
48964;BME280;34776;48.180;16.420;2023-04-01T05:32:06;98409.38;;;10.80;58.36
48964;BME280;34776;48.180;16.420;2023-04-01T05:34:31;98420.50;;;10.85;58.36
48964;BME280;34776;48.180;16.420;2023-04-01T05:36:56;98421.97;;;10.89;58.31
48964;BME280;34776;48.180;16.420;2023-04-01T05:39:22;98434.06;;;10.93;58.42
48964;BME280;34776;48.180;16.420;2023-04-01T05:41:48;98432.88;;;10.97;58.45
48964;BME280;34776;48.180;16.420;2023-04-01T05:44:13;98450.78;;;11.06;58.14
48964;BME280;34776;48.180;16.420;2023-04-01T05:46:39;98440.56;;;11.13;58.07
48964;BME280;34776;48.180;16.420;2023-04-01T05:49:04;98458.81;;;11.17;57.91
48964;BME280;34776;48.180;16.420;2023-04-01T05:51:30;98454.97;;;11.22;57.91
48964;BME280;34776;48.180;16.420;2023-04-01T05:53:55;98453.41;;;11.30;57.87
48964;BME280;34776;48.180;16.420;2023-04-01T05:56:21;98456.91;;;11.31;57.57
48964;BME280;34776;48.180;16.420;2023-04-01T05:58:51;98463.81;;;11.33;57.76
48964;BME280;34776;48.180;16.420;2023-04-01T06:01:18;98470.72;;;11.36;57.55
48964;BME280;34776;48.180;16.420;2023-04-01T06:03:44;98463.97;;;11.43;57.37
48964;BME280;34776;48.180;16.420;2023-04-01T06:06:28;98470.63;;;11.49;57.51
48964;BME280;34776;48.180;16.420;2023-04-01T06:08:57;98469.06;;;11.57;57.13
48964;BME280;34776;48.180;16.420;2023-04-01T06:11:37;98465.94;;;11.64;57.21
48964;BME280;34776;48.180;16.420;2023-04-01T06:14:31;98472.72;;;11.79;56.87
48964;BME280;34776;48.180;16.420;2023-04-01T06:19:47;98472.03;;;12.11;56.29
48964;BME280;34776;48.180;16.420;2023-04-01T06:28:35;98486.50;;;12.63;54.42
48964;BME280;34776;48.180;16.420;2023-04-01T06:39:33;98480.97;;;12.98;53.54
48964;BME280;34776;48.180;16.420;2023-04-01T06:50:34;98473.00;;;13.19;52.82
48964;BME280;34776;48.180;16.420;2023-04-01T06:53:20;98476.34;;;13.33;53.22
48964;BME280;34776;48.180;16.420;2023-04-01T06:55:51;98477.47;;;13.51;52.71
48964;BME280;34776;48.180;16.420;2023-04-01T06:58:25;98480.84;;;13.53;52.53
48964;BME280;34776;48.180;16.420;2023-04-01T07:00:56;98476.81;;;13.59;52.24
48964;BME280;34776;48.180;16.420;2023-04-01T07:03:41;98491.13;;;13.79;51.71
48964;BME280;34776;48.180;16.420;2023-04-01T07:06:13;98486.72;;;15.87;48.51
48964;BME280;34776;48.180;16.420;2023-04-01T07:08:43;98489.50;;;19.15;43.76
48964;BME280;34776;48.180;16.420;2023-04-01T07:11:12;98476.66;;;21.87;39.46
48964;BME280;34776;48.180;16.420;2023-04-01T07:13:47;98486.16;;;23.17;35.41
48964;BME280;34776;48.180;16.420;2023-04-01T07:16:32;98485.09;;;22.81;35.37
48964;BME280;34776;48.180;16.420;2023-04-01T07:19:06;98487.53;;;22.46;36.10
48964;BME280;34776;48.180;16.420;2023-04-01T07:21:46;98485.91;;;24.39;31.87
48964;BME280;34776;48.180;16.420;2023-04-01T07:24:37;98467.72;;;24.75;29.35
48964;BME280;34776;48.180;16.420;2023-04-01T07:27:08;98492.13;;;25.16;32.15
48964;BME280;34776;48.180;16.420;2023-04-01T07:29:35;98478.59;;;26.29;30.52
48964;BME280;34776;48.180;16.420;2023-04-01T07:35:07;98479.31;;;26.77;26.69
48964;BME280;34776;48.180;16.420;2023-04-01T07:43:18;98470.63;;;29.06;24.70
48964;BME280;34776;48.180;16.420;2023-04-01T07:46:06;98468.75;;;30.26;22.15
48964;BME280;34776;48.180;16.420;2023-04-01T07:51:24;98467.34;;;30.35;23.42
48964;BME280;34776;48.180;16.420;2023-04-01T07:54:37;98476.03;;;30.20;23.06
48964;BME280;34776;48.180;16.420;2023-04-01T07:57:20;98469.25;;;30.46;22.29
48964;BME280;34776;48.180;16.420;2023-04-01T08:05:39;98475.09;;;30.26;22.59
48964;BME280;34776;48.180;16.420;2023-04-01T08:08:27;98472.63;;;30.89;21.67
48964;BME280;34776;48.180;16.420;2023-04-01T08:11:21;98472.25;;;31.43;20.40
48964;BME280;34776;48.180;16.420;2023-04-01T08:16:46;98471.88;;;30.41;23.08
48964;BME280;34776;48.180;16.420;2023-04-01T08:19:45;98475.09;;;30.38;21.75
48964;BME280;34776;48.180;16.420;2023-04-01T08:24:48;98483.03;;;30.28;22.81
48964;BME280;34776;48.180;16.420;2023-04-01T08:29:58;98484.25;;;30.08;21.43
48964;BME280;34776;48.180;16.420;2023-04-01T08:32:34;98490.84;;;26.72;24.99
48964;BME280;34776;48.180;16.420;2023-04-01T08:38:38;98508.78;;;23.09;28.31
48964;BME280;34776;48.180;16.420;2023-04-01T08:53:13;98506.03;;;18.78;35.03
48964;BME280;34776;48.180;16.420;2023-04-01T08:56:33;98508.13;;;18.58;35.51
48964;BME280;34776;48.180;16.420;2023-04-01T08:59:02;98503.66;;;19.58;35.00
48964;BME280;34776;48.180;16.420;2023-04-01T09:06:55;98484.63;;;22.78;29.29
48964;BME280;34776;48.180;16.420;2023-04-01T09:31:49;98518.84;;;18.15;36.56
48964;BME280;34776;48.180;16.420;2023-04-01T09:34:43;98523.75;;;18.20;36.07
48964;BME280;34776;48.180;16.420;2023-04-01T09:43:21;98526.00;;;16.91;37.71
48964;BME280;34776;48.180;16.420;2023-04-01T09:54:22;98523.38;;;16.43;39.96
48964;BME280;34776;48.180;16.420;2023-04-01T10:13:21;98504.69;;;19.41;34.84
48964;BME280;34776;48.180;16.420;2023-04-01T10:56:39;98523.91;;;16.75;38.40
48964;BME280;34776;48.180;16.420;2023-04-01T11:05:19;98521.72;;;16.60;38.56
48964;BME280;34776;48.180;16.420;2023-04-01T11:10:54;98502.13;;;16.32;39.01
48964;BME280;34776;48.180;16.420;2023-04-01T11:13:47;98506.56;;;16.41;39.04
48964;BME280;34776;48.180;16.420;2023-04-01T11:22:37;98498.25;;;16.72;38.05
48964;BME280;34776;48.180;16.420;2023-04-01T11:25:29;98500.06;;;16.44;37.97
48964;BME280;34776;48.180;16.420;2023-04-01T11:30:41;98508.72;;;15.91;39.18
48964;BME280;34776;48.180;16.420;2023-04-01T11:33:20;98515.50;;;15.95;39.21
48964;BME280;34776;48.180;16.420;2023-04-01T11:35:55;98511.53;;;15.99;39.48
48964;BME280;34776;48.180;16.420;2023-04-01T11:38:57;98516.69;;;16.20;39.15
48964;BME280;34776;48.180;16.420;2023-04-01T11:41:35;98508.56;;;16.39;39.06
48964;BME280;34776;48.180;16.420;2023-04-01T11:44:19;98505.53;;;16.52;38.12
48964;BME280;34776;48.180;16.420;2023-04-01T12:16:37;98513.13;;;17.48;37.00
48964;BME280;34776;48.180;16.420;2023-04-01T12:19:57;98504.63;;;17.97;36.02
48964;BME280;34776;48.180;16.420;2023-04-01T12:22:44;98505.88;;;18.11;35.92
48964;BME280;34776;48.180;16.420;2023-04-01T12:30:56;98496.50;;;17.27;36.88
48964;BME280;34776;48.180;16.420;2023-04-01T12:36:37;98495.66;;;17.26;36.49
48964;BME280;34776;48.180;16.420;2023-04-01T12:53:35;98506.44;;;17.52;36.36
48964;BME280;34776;48.180;16.420;2023-04-01T12:56:03;98503.41;;;17.47;36.84
48964;BME280;34776;48.180;16.420;2023-04-01T13:04:34;98507.06;;;17.46;37.30
48964;BME280;34776;48.180;16.420;2023-04-01T13:07:32;98496.25;;;18.34;36.28
48964;BME280;34776;48.180;16.420;2023-04-01T13:10:17;98492.19;;;19.40;34.90
48964;BME280;34776;48.180;16.420;2023-04-01T13:12:53;98480.59;;;19.89;34.87
48964;BME280;34776;48.180;16.420;2023-04-01T13:15:40;98477.53;;;20.00;33.66
48964;BME280;34776;48.180;16.420;2023-04-01T13:20:45;98469.97;;;20.43;33.77
48964;BME280;34776;48.180;16.420;2023-04-01T13:24:18;98463.00;;;20.57;30.93
48964;BME280;34776;48.180;16.420;2023-04-01T13:26:49;98462.88;;;19.94;32.05
48964;BME280;34776;48.180;16.420;2023-04-01T13:29:23;98470.78;;;20.12;33.22
48964;BME280;34776;48.180;16.420;2023-04-01T13:32:06;98463.09;;;20.32;31.52
48964;BME280;34776;48.180;16.420;2023-04-01T13:34:48;98468.13;;;19.79;32.48
48964;BME280;34776;48.180;16.420;2023-04-01T13:43:31;98467.97;;;18.64;32.88
48964;BME280;34776;48.180;16.420;2023-04-01T13:46:25;98475.47;;;18.44;33.63
48964;BME280;34776;48.180;16.420;2023-04-01T13:52:18;98472.97;;;19.02;33.31
48964;BME280;34776;48.180;16.420;2023-04-01T13:55:20;98452.28;;;19.27;32.11
48964;BME280;34776;48.180;16.420;2023-04-01T13:58:04;98459.03;;;19.23;33.17
48964;BME280;34776;48.180;16.420;2023-04-01T14:05:54;98450.78;;;19.65;31.28
48964;BME280;34776;48.180;16.420;2023-04-01T14:08:52;98448.75;;;19.76;31.12
48964;BME280;34776;48.180;16.420;2023-04-01T14:14:30;98454.13;;;19.10;31.91
48964;BME280;34776;48.180;16.420;2023-04-01T14:17:42;98444.94;;;18.70;32.58
48964;BME280;34776;48.180;16.420;2023-04-01T14:20:29;98443.34;;;18.94;32.48
48964;BME280;34776;48.180;16.420;2023-04-01T14:23:31;98445.34;;;18.92;32.24
48964;BME280;34776;48.180;16.420;2023-04-01T14:29:04;98443.03;;;18.97;32.33
48964;BME280;34776;48.180;16.420;2023-04-01T14:31:44;98445.88;;;18.95;32.78
48964;BME280;34776;48.180;16.420;2023-04-01T14:37:19;98443.53;;;19.00;32.61
48964;BME280;34776;48.180;16.420;2023-04-01T14:40:19;98445.38;;;19.08;32.04
48964;BME280;34776;48.180;16.420;2023-04-01T14:43:16;98444.38;;;19.01;31.67
48964;BME280;34776;48.180;16.420;2023-04-01T14:46:11;98441.59;;;18.76;31.32
48964;BME280;34776;48.180;16.420;2023-04-01T14:48:57;98441.25;;;18.63;31.36
48964;BME280;34776;48.180;16.420;2023-04-01T14:51:36;98439.19;;;18.49;31.07
48964;BME280;34776;48.180;16.420;2023-04-01T14:54:22;98441.66;;;18.34;31.06
48964;BME280;34776;48.180;16.420;2023-04-01T14:59:40;98436.16;;;18.60;31.39
48964;BME280;34776;48.180;16.420;2023-04-01T15:02:28;98440.09;;;18.74;31.35
48964;BME280;34776;48.180;16.420;2023-04-01T15:05:32;98432.53;;;18.77;30.07
48964;BME280;34776;48.180;16.420;2023-04-01T15:08:26;98434.94;;;18.89;30.11
48964;BME280;34776;48.180;16.420;2023-04-01T15:14:11;98417.75;;;18.81;30.27
48964;BME280;34776;48.180;16.420;2023-04-01T15:16:55;98436.56;;;18.73;30.69
48964;BME280;34776;48.180;16.420;2023-04-01T15:19:52;98433.84;;;18.65;30.55
48964;BME280;34776;48.180;16.420;2023-04-01T15:28:00;98444.78;;;18.21;31.78
48964;BME280;34776;48.180;16.420;2023-04-01T15:35:52;98443.03;;;18.12;32.46
48964;BME280;34776;48.180;16.420;2023-04-01T15:38:28;98454.38;;;17.89;33.22
48964;BME280;34776;48.180;16.420;2023-04-01T15:41:14;98458.16;;;17.60;34.02
48964;BME280;34776;48.180;16.420;2023-04-01T15:43:51;98469.47;;;17.46;34.50
48964;BME280;34776;48.180;16.420;2023-04-01T15:46:46;98456.59;;;17.32;35.05
48964;BME280;34776;48.180;16.420;2023-04-01T15:49:19;98465.94;;;17.28;35.07
48964;BME280;34776;48.180;16.420;2023-04-01T15:57:43;98481.81;;;16.85;36.67
48964;BME280;34776;48.180;16.420;2023-04-01T16:00:23;98486.34;;;16.57;37.02
48964;BME280;34776;48.180;16.420;2023-04-01T16:03:14;98488.16;;;16.29;37.81
48964;BME280;34776;48.180;16.420;2023-04-01T16:06:06;98491.16;;;16.16;38.22
48964;BME280;34776;48.180;16.420;2023-04-01T16:08:43;98479.78;;;16.04;38.19
48964;BME280;34776;48.180;16.420;2023-04-01T16:22:31;98484.50;;;15.53;39.91
48964;BME280;34776;48.180;16.420;2023-04-01T16:25:19;98499.19;;;15.39;40.16
48964;BME280;34776;48.180;16.420;2023-04-01T16:28:16;98513.97;;;15.34;40.92
48964;BME280;34776;48.180;16.420;2023-04-01T16:30:48;98514.84;;;15.25;40.72
48964;BME280;34776;48.180;16.420;2023-04-01T16:36:13;98525.66;;;15.13;41.11
48964;BME280;34776;48.180;16.420;2023-04-01T16:41:47;98539.28;;;14.91;42.46
48964;BME280;34776;48.180;16.420;2023-04-01T16:44:24;98540.22;;;14.80;43.42
48964;BME280;34776;48.180;16.420;2023-04-01T16:46:58;98549.94;;;14.71;43.30
48964;BME280;34776;48.180;16.420;2023-04-01T16:49:53;98551.47;;;14.64;44.42
48964;BME280;34776;48.180;16.420;2023-04-01T16:55:20;98570.22;;;14.53;43.98
48964;BME280;34776;48.180;16.420;2023-04-01T16:57:50;98578.06;;;14.45;44.72
48964;BME280;34776;48.180;16.420;2023-04-01T17:00:39;98573.53;;;14.35;46.28
48964;BME280;34776;48.180;16.420;2023-04-01T17:05:52;98578.09;;;14.24;45.90
48964;BME280;34776;48.180;16.420;2023-04-01T17:08:23;98590.63;;;14.23;45.14
48964;BME280;34776;48.180;16.420;2023-04-01T17:11:28;98586.78;;;14.16;45.67
48964;BME280;34776;48.180;16.420;2023-04-01T17:14:14;98602.88;;;14.05;46.46
48964;BME280;34776;48.180;16.420;2023-04-01T17:22:27;98600.41;;;13.92;46.45
48964;BME280;34776;48.180;16.420;2023-04-01T17:27:59;98621.22;;;13.77;47.50
48964;BME280;34776;48.180;16.420;2023-04-01T17:31:02;98630.25;;;13.65;48.30
48964;BME280;34776;48.180;16.420;2023-04-01T17:33:53;98629.97;;;13.47;49.74
48964;BME280;34776;48.180;16.420;2023-04-01T17:36:31;98640.31;;;13.40;49.05
48964;BME280;34776;48.180;16.420;2023-04-01T17:47:36;98647.13;;;12.99;49.64
48964;BME280;34776;48.180;16.420;2023-04-01T17:50:23;98654.16;;;12.89;50.65
48964;BME280;34776;48.180;16.420;2023-04-01T17:52:58;98650.53;;;12.78;51.27
48964;BME280;34776;48.180;16.420;2023-04-01T18:00:50;98663.13;;;12.65;51.80
48964;BME280;34776;48.180;16.420;2023-04-01T18:06:21;98676.44;;;12.54;53.00
48964;BME280;34776;48.180;16.420;2023-04-01T18:09:05;98686.50;;;12.50;52.71
48964;BME280;34776;48.180;16.420;2023-04-01T18:11:49;98686.00;;;12.45;52.67
48964;BME280;34776;48.180;16.420;2023-04-01T18:14:42;98692.03;;;12.36;54.74
48964;BME280;34776;48.180;16.420;2023-04-01T18:23:03;98699.63;;;12.18;54.07
48964;BME280;34776;48.180;16.420;2023-04-01T18:25:37;98705.41;;;12.12;54.47
48964;BME280;34776;48.180;16.420;2023-04-01T18:28:14;98716.53;;;12.06;54.46
48964;BME280;34776;48.180;16.420;2023-04-01T18:30:44;98720.38;;;12.02;54.46
48964;BME280;34776;48.180;16.420;2023-04-01T18:38:53;98731.88;;;12.02;54.78
48964;BME280;34776;48.180;16.420;2023-04-01T18:44:16;98742.88;;;11.97;54.99
48964;BME280;34776;48.180;16.420;2023-04-01T18:47:03;98751.94;;;11.95;55.58
48964;BME280;34776;48.180;16.420;2023-04-01T18:49:53;98757.25;;;11.95;55.74
48964;BME280;34776;48.180;16.420;2023-04-01T18:52:26;98751.78;;;11.96;54.93
48964;BME280;34776;48.180;16.420;2023-04-01T18:57:41;98758.09;;;11.95;56.13
48964;BME280;34776;48.180;16.420;2023-04-01T19:00:20;98764.50;;;11.93;55.44
48964;BME280;34776;48.180;16.420;2023-04-01T19:05:24;98759.19;;;11.93;56.42
48964;BME280;34776;48.180;16.420;2023-04-01T19:07:53;98771.63;;;11.92;55.55
48964;BME280;34776;48.180;16.420;2023-04-01T19:10:40;98771.75;;;11.91;55.66
48964;BME280;34776;48.180;16.420;2023-04-01T19:13:16;98773.69;;;11.89;56.02
48964;BME280;34776;48.180;16.420;2023-04-01T19:15:52;98768.44;;;11.87;56.11
48964;BME280;34776;48.180;16.420;2023-04-01T19:21:37;98786.03;;;11.77;57.28
48964;BME280;34776;48.180;16.420;2023-04-01T19:27:29;98776.09;;;11.55;57.97
48964;BME280;34776;48.180;16.420;2023-04-01T19:30:18;98774.81;;;11.48;57.64
48964;BME280;34776;48.180;16.420;2023-04-01T19:33:10;98789.53;;;11.41;58.58
48964;BME280;34776;48.180;16.420;2023-04-01T19:36:11;98793.47;;;11.35;57.87
48964;BME280;34776;48.180;16.420;2023-04-01T19:38:40;98787.66;;;11.30;57.46
48964;BME280;34776;48.180;16.420;2023-04-01T19:41:33;98801.03;;;11.28;58.56
48964;BME280;34776;48.180;16.420;2023-04-01T19:58:24;98807.22;;;11.03;59.24
48964;BME280;34776;48.180;16.420;2023-04-01T20:00:25;98805.50;;;11.02;59.40
48964;BME280;34776;48.180;16.420;2023-04-01T20:03:57;98799.56;;;10.99;60.39
48964;BME280;34776;48.180;16.420;2023-04-01T20:08:54;98810.50;;;10.94;60.38
48964;BME280;34776;48.180;16.420;2023-04-01T20:14:51;98811.69;;;10.90;60.72